createdAt,value
2016-10-18T04:41:04.407Z,1019.99
2016-10-18T04:42:05.123Z,1019.99
2016-10-18T04:43:05.814Z,1019.97
2016-10-18T04:44:06.510Z,1019.94
2016-10-18T04:45:07.253Z,1019.96
2016-10-18T04:46:08.014Z,1019.95
2016-10-18T04:47:08.728Z,1019.96
2016-10-18T04:48:10.043Z,1019.94
2016-10-18T04:49:11.645Z,1019.92
2016-10-18T04:50:14.779Z,1019.94
2016-10-18T04:51:14.903Z,1019.95
2016-10-18T04:52:15.642Z,1019.95
2016-10-18T04:53:16.373Z,1019.95
2016-10-18T04:54:17.090Z,1019.93
2016-10-18T04:55:17.849Z,1019.93
2016-10-18T04:56:18.561Z,1019.91
2016-10-18T04:57:19.299Z,1019.91
2016-10-18T04:58:20.031Z,1019.92
2016-10-18T04:59:20.812Z,1019.93
2016-10-18T05:00:21.513Z,1019.89
2016-10-18T05:01:22.215Z,1019.91
2016-10-18T05:02:22.960Z,1019.9
2016-10-18T05:03:23.707Z,1019.88
2016-10-18T05:04:24.472Z,1019.85
2016-10-18T05:05:25.284Z,1019.85
2016-10-18T05:06:26.060Z,1019.85
2016-10-18T05:07:26.783Z,1019.86
2016-10-18T05:08:27.508Z,1019.83
2016-10-18T05:09:28.230Z,1019.85
2016-10-18T05:10:29.041Z,1019.85
2016-10-18T05:11:29.830Z,1019.8
2016-10-18T05:12:30.555Z,1019.78
2016-10-18T05:13:31.384Z,1019.74
2016-10-18T05:14:32.100Z,1019.78
2016-10-18T05:15:32.894Z,1019.79
2016-10-18T05:16:33.612Z,1019.81
2016-10-18T05:17:34.333Z,1019.83
2016-10-18T05:18:35.028Z,1019.82
2016-10-18T05:19:35.912Z,1019.81
2016-10-18T05:20:36.654Z,1019.78
2016-10-18T05:21:37.381Z,1019.74
2016-10-18T05:22:38.155Z,1019.74
2016-10-18T05:23:38.915Z,1019.75
2016-10-18T05:24:39.649Z,1019.7
2016-10-18T05:25:40.432Z,1019.71
2016-10-18T05:26:41.223Z,1019.71
2016-10-18T05:27:41.967Z,1019.72
2016-10-18T05:28:42.749Z,1019.72
2016-10-18T05:29:43.475Z,1019.7
2016-10-18T05:30:44.205Z,1019.73
2016-10-18T05:31:44.953Z,1019.71
2016-10-18T05:32:45.903Z,1019.7
2016-10-18T05:33:46.661Z,1019.73
2016-10-18T05:34:47.401Z,1019.76
2016-10-18T05:35:48.137Z,1019.68
2016-10-18T05:36:48.868Z,1019.67
2016-10-18T05:37:49.594Z,1019.68
2016-10-18T05:38:50.308Z,1019.67
2016-10-18T05:39:51.053Z,1019.64
2016-10-18T05:40:51.839Z,1019.64
2016-10-18T05:41:52.619Z,1019.65
2016-10-18T05:42:53.346Z,1019.64
2016-10-18T05:43:54.094Z,1019.67
2016-10-18T05:44:54.857Z,1019.62
2016-10-18T05:45:55.584Z,1019.61
2016-10-18T05:46:56.285Z,1019.62
2016-10-18T05:47:57.036Z,1019.56
2016-10-18T05:48:57.767Z,1019.61
2016-10-18T05:49:58.518Z,1019.58
2016-10-18T05:50:59.243Z,1019.6
2016-10-18T05:52:00.000Z,1019.6
2016-10-18T05:53:00.705Z,1019.58
2016-10-18T05:54:01.442Z,1019.55
2016-10-18T05:55:02.199Z,1019.57
2016-10-18T05:56:02.958Z,1019.53
2016-10-18T05:57:03.678Z,1019.54
2016-10-18T05:58:04.428Z,1019.58
2016-10-18T05:59:05.113Z,1019.61
2016-10-18T06:00:05.879Z,1019.64
2016-10-18T06:01:06.554Z,1019.62
2016-10-18T06:02:07.340Z,1019.65
2016-10-18T06:03:08.007Z,1019.66
2016-10-18T06:04:08.745Z,1019.71
2016-10-18T06:05:09.445Z,1019.67
2016-10-18T06:06:10.211Z,1019.7
2016-10-18T06:07:10.926Z,1019.72
2016-10-18T06:08:11.661Z,1019.73
2016-10-18T06:09:12.389Z,1019.74
2016-10-18T06:10:13.062Z,1019.73
